Time;durP1;ratioP1;P1;durP2;ratioP2;P2;SDS_P1;SDS_P2;PMS_P1;PMS_P2;Temp;Humidity;BMP_temperature;BMP_pressure;BME280_temperature;BME280_humidity;BME280_pressure;Samples;Min_cycle;Max_cycle;Signal;HPM_P1;HPM_P2
2023/05/19 00:00:25;;;;;;;67.95;7.25;;;10.60;98.30;;;;;;4899513;29;20445;-87
2023/05/19 00:03:00;;;;;;;68.15;6.68;;;10.50;98.00;;;;;;4901406;29;20201;-87
2023/05/19 00:05:29;;;;;;;68.38;6.90;;;10.60;95.80;;;;;;4901026;29;20157;-87
2023/05/19 00:08:04;;;;;;;67.70;8.98;;;10.50;98.10;;;;;;4900979;29;20634;-87
2023/05/19 00:10:31;;;;;;;72.60;9.48;;;10.50;99.90;;;;;;4900899;29;20157;-87
2023/05/19 00:13:07;;;;;;;67.63;8.35;;;10.40;99.90;;;;;;4900925;29;20173;-87
2023/05/19 00:15:38;;;;;;;69.03;9.27;;;10.40;99.90;;;;;;4901173;29;20187;-86
2023/05/19 00:18:12;;;;;;;68.93;9.10;;;10.30;99.90;;;;;;4900874;29;20201;-86
2023/05/19 00:21:01;;;;;;;69.97;9.60;;;10.30;99.90;;;;;;4900789;29;20216;-86
2023/05/19 00:23:47;;;;;;;69.05;9.55;;;10.30;99.90;;;;;;4843045;29;20247;-87
2023/05/19 00:26:22;;;;;;;70.57;10.10;;;10.20;99.90;;;;;;4899102;29;20209;-87
2023/05/19 00:29:29;;;;;;;67.60;8.98;;;10.20;99.90;;;;;;4900637;29;20177;-87
2023/05/19 00:32:12;;;;;;;70.90;9.63;;;10.20;99.90;;;;;;4843074;29;20760;-87
2023/05/19 00:34:44;;;;;;;69.50;10.73;;;10.10;99.90;;;;;;4842006;29;20255;-87
2023/05/19 00:37:18;;;;;;;69.32;10.27;;;10.10;99.90;;;;;;4900566;29;20190;-87
2023/05/19 00:39:50;;;;;;;73.85;11.75;;;10.00;99.90;;;;;;4899398;29;20206;-87
2023/05/19 00:42:39;;;;;;;68.18;8.80;;;10.00;99.90;;;;;;4900333;29;20190;-87
2023/05/19 00:45:12;;;;;;;71.75;8.05;;;9.90;99.90;;;;;;4900937;29;20166;-87
2023/05/19 00:47:55;;;;;;;71.28;10.80;;;9.90;99.90;;;;;;4900545;29;20532;-87
2023/05/19 00:50:42;;;;;;;69.82;8.32;;;9.90;99.90;;;;;;4900169;29;20228;-87
2023/05/19 00:53:47;;;;;;;68.45;7.65;;;10.00;99.90;;;;;;4898647;29;20177;-86
2023/05/19 00:56:25;;;;;;;69.45;9.15;;;10.00;99.90;;;;;;4895214;29;20201;-87
2023/05/19 00:59:02;;;;;;;67.57;8.32;;;9.90;99.90;;;;;;4898777;29;20178;-87
2023/05/19 01:01:49;;;;;;;69.57;8.85;;;9.90;99.90;;;;;;4900300;29;20181;-87
2023/05/19 01:04:25;;;;;;;72.45;9.50;;;9.90;99.90;;;;;;4900061;29;20170;-87
2023/05/19 01:07:00;;;;;;;68.90;8.25;;;9.80;99.90;;;;;;4899927;29;20661;-87
2023/05/19 01:12:46;;;;;;;68.85;8.73;;;9.70;99.90;;;;;;4892875;29;20193;-87
2023/05/19 01:15:25;;;;;;;69.57;9.50;;;9.60;99.90;;;;;;4900127;29;20172;-87
2023/05/19 01:18:15;;;;;;;69.15;9.60;;;9.60;99.90;;;;;;4898588;29;20215;-87
2023/05/19 01:21:15;;;;;;;74.00;10.90;;;9.60;99.90;;;;;;4899712;29;20186;-87
2023/05/19 01:24:26;;;;;;;71.35;9.30;;;9.60;99.90;;;;;;4897977;29;20663;-86
2023/05/19 01:27:47;;;;;;;70.70;10.93;;;9.40;99.90;;;;;;4899087;29;20190;-87
2023/05/19 01:31:06;;;;;;;74.10;10.05;;;9.50;99.90;;;;;;4900456;29;20187;-87
2023/05/19 01:36:57;;;;;;;68.40;9.32;;;9.40;99.90;;;;;;4897416;29;20205;-87
2023/05/19 01:39:26;;;;;;;67.82;8.32;;;9.30;99.90;;;;;;4899505;29;20638;-87
2023/05/19 01:42:10;;;;;;;68.43;8.75;;;9.30;99.90;;;;;;4898002;29;20257;-87
2023/05/19 01:45:25;;;;;;;71.88;8.82;;;9.30;99.90;;;;;;4898545;29;20174;-87
2023/05/19 01:48:11;;;;;;;73.28;9.20;;;9.40;99.90;;;;;;4827976;29;20187;-87
2023/05/19 01:50:41;;;;;;;70.55;8.18;;;9.40;99.90;;;;;;4860063;29;20157;-87
2023/05/19 01:53:23;;;;;;;;;;;;;;;;;;;;;
2023/05/19 01:56:32;;;;;;;72.70;9.98;;;9.30;99.90;;;;;;4899375;29;20200;-87
2023/05/19 01:59:27;;;;;;;74.00;8.63;;;9.30;99.90;;;;;;4899047;29;20162;-87
2023/05/19 02:02:20;;;;;;;73.68;8.88;;;9.30;99.90;;;;;;4897728;29;20182;-86
2023/05/19 02:05:16;;;;;;;72.00;8.93;;;9.20;99.90;;;;;;4897743;29;20177;-86
2023/05/19 02:08:33;;;;;;;69.55;8.70;;;9.20;99.90;;;;;;4898130;29;20209;-87
2023/05/19 02:11:53;;;;;;;68.20;8.07;;;9.20;99.90;;;;;;4856604;29;20178;-87
2023/05/19 02:14:31;;;;;;;68.75;8.55;;;9.10;99.90;;;;;;4897924;29;20182;-87
2023/05/19 02:17:39;;;;;;;73.13;9.05;;;9.10;99.90;;;;;;4898389;29;20186;-87
2023/05/19 02:23:47;;;;;;;69.38;8.98;;;9.00;99.90;;;;;;4876795;29;20193;-86
2023/05/19 02:26:42;;;;;;;68.60;7.90;;;9.00;99.90;;;;;;4895659;29;20198;-87
2023/05/19 02:29:32;;;;;;;68.35;7.70;;;9.00;99.90;;;;;;4898519;29;20233;-87
2023/05/19 02:32:42;;;;;;;;;;;;;;;;;;;;;
2023/05/19 02:35:19;;;;;;;73.78;9.65;;;8.70;99.90;;;;;;4891443;29;20174;-87
2023/05/19 02:38:01;;;;;;;72.65;8.70;;;8.70;99.90;;;;;;4897194;29;20220;-86
2023/05/19 02:40:44;;;;;;;69.88;9.27;;;8.70;99.90;;;;;;4896939;29;20237;-86
2023/05/19 02:43:12;;;;;;;72.82;10.10;;;8.60;99.90;;;;;;4897159;29;20691;-86
2023/05/19 02:45:46;;;;;;;70.90;9.25;;;8.70;99.90;;;;;;4898164;29;20165;-87
2023/05/19 02:48:27;;;;;;;70.25;8.57;;;8.70;99.90;;;;;;4898589;29;20614;-87
2023/05/19 02:50:53;;;;;;;70.97;9.45;;;8.70;99.90;;;;;;4897084;29;20653;-86
2023/05/19 02:53:42;;;;;;;70.60;8.63;;;8.80;99.90;;;;;;4897909;29;20182;-86
2023/05/19 02:56:45;;;;;;;69.50;8.77;;;8.70;99.90;;;;;;4883987;29;20202;-87
2023/05/19 02:59:23;;;;;;;71.20;9.10;;;8.50;99.90;;;;;;4850709;29;20190;-86
2023/05/19 03:02:20;;;;;;;72.85;8.70;;;8.50;99.90;;;;;;4898175;29;20154;-86
2023/05/19 03:04:49;;;;;;;72.57;9.13;;;8.50;99.90;;;;;;4892870;29;20653;-86
2023/05/19 03:07:23;;;;;;;73.80;7.78;;;8.50;99.90;;;;;;4910735;23;20581;-87
2023/05/19 03:09:52;;;;;;;72.40;9.60;;;8.50;99.90;;;;;;4896796;29;20174;-86
2023/05/19 03:13:00;;;;;;;68.97;8.65;;;8.40;99.90;;;;;;4897390;29;20518;-87
2023/05/19 03:15:47;;;;;;;70.72;10.13;;;8.30;99.90;;;;;;4851960;29;20186;-87
2023/05/19 03:18:38;;;;;;;70.80;9.57;;;8.30;99.90;;;;;;4898064;29;20221;-86
2023/05/19 03:21:07;;;;;;;73.20;9.35;;;8.20;99.90;;;;;;4898073;29;20210;-86
2023/05/19 03:26:03;;;;;;;71.55;8.40;;;8.20;99.90;;;;;;4973874;23;20260;-87
2023/05/19 03:28:28;;;;;;;70.13;8.50;;;8.20;99.90;;;;;;4907603;29;20170;-88
2023/05/19 03:30:54;;;;;;;71.10;8.70;;;8.10;99.90;;;;;;4905900;29;20173;-88
2023/05/19 03:33:20;;;;;;;70.77;8.70;;;8.10;99.90;;;;;;4907288;29;20418;-88
2023/05/19 03:35:46;;;;;;;71.50;10.23;;;8.10;99.90;;;;;;4905332;29;20202;-88
2023/05/19 03:38:14;;;;;;;73.50;8.90;;;8.00;99.90;;;;;;4905809;29;20426;-88
2023/05/19 03:40:40;;;;;;;70.38;8.60;;;8.10;99.90;;;;;;4905917;29;20202;-87
2023/05/19 03:43:06;;;;;;;71.00;8.18;;;8.10;99.90;;;;;;4906133;29;20181;-88
2023/05/19 03:45:32;;;;;;;74.75;10.52;;;8.10;99.90;;;;;;4906815;29;20173;-88
2023/05/19 03:48:01;;;;;;;71.00;9.27;;;8.10;99.90;;;;;;4906289;29;20649;-87
2023/05/19 03:50:27;;;;;;;71.40;12.13;;;8.10;99.90;;;;;;4907303;29;20201;-87
2023/05/19 03:52:54;;;;;;;72.38;13.63;;;8.00;99.90;;;;;;4905881;29;20246;-87
2023/05/19 03:55:22;;;;;;;71.97;14.48;;;8.00;99.90;;;;;;4906626;29;20534;-87
2023/05/19 03:57:48;;;;;;;72.63;10.90;;;8.00;99.90;;;;;;4906558;29;20717;-88
2023/05/19 04:00:14;;;;;;;77.43;12.60;;;8.00;99.90;;;;;;4904639;29;20197;-87
2023/05/19 04:02:40;;;;;;;70.57;14.20;;;8.00;99.90;;;;;;4905147;29;20437;-87
2023/05/19 04:05:07;;;;;;;69.80;12.50;;;8.00;99.90;;;;;;4907150;29;20257;-88
2023/05/19 04:07:33;;;;;;;71.07;14.05;;;8.00;99.90;;;;;;4905202;29;20193;-88
2023/05/19 04:09:58;;;;;;;72.80;15.40;;;8.00;99.90;;;;;;4908383;29;20202;-87
2023/05/19 04:12:24;;;;;;;74.37;15.60;;;8.00;99.90;;;;;;4909598;29;20166;-87
2023/05/19 04:14:50;;;;;;;72.80;16.00;;;8.00;99.90;;;;;;4909140;29;20422;-87
2023/05/19 04:17:15;;;;;;;75.23;14.30;;;8.00;99.90;;;;;;4908052;29;20257;-87
2023/05/19 04:19:41;;;;;;;72.07;14.00;;;8.00;99.90;;;;;;4909117;29;20190;-87
2023/05/19 04:22:07;;;;;;;74.30;16.27;;;8.00;99.90;;;;;;4909251;29;20249;-88
2023/05/19 04:24:33;;;;;;;78.93;15.23;;;8.00;99.90;;;;;;4908150;29;20186;-86
2023/05/19 04:27:03;;;;;;;77.17;16.40;;;8.10;99.90;;;;;;4907502;29;20280;-88
2023/05/19 04:29:29;;;;;;;75.90;22.48;;;8.20;99.90;;;;;;4908260;29;20158;-86
2023/05/19 04:31:59;;;;;;;74.93;19.17;;;8.20;99.90;;;;;;4908917;29;20181;-87
2023/05/19 04:34:27;;;;;;;71.82;13.57;;;8.30;99.90;;;;;;4907650;29;20418;-88
2023/05/19 04:36:54;;;;;;;74.28;17.98;;;8.50;99.90;;;;;;4907639;29;20610;-86
2023/05/19 04:39:20;;;;;;;76.80;20.67;;;8.50;99.90;;;;;;4908466;29;20162;-87
2023/05/19 04:41:46;;;;;;;75.53;20.35;;;8.60;99.90;;;;;;4908245;29;20201;-87
2023/05/19 04:44:12;;;;;;;72.30;13.07;;;8.80;99.90;;;;;;4907370;29;20170;-87
2023/05/19 04:46:38;;;;;;;71.60;9.45;;;9.10;99.90;;;;;;4907291;29;20435;-88
2023/05/19 04:49:03;;;;;;;68.70;8.47;;;9.30;99.90;;;;;;4908845;29;20172;-87
2023/05/19 04:51:32;;;;;;;69.67;9.37;;;9.50;99.90;;;;;;4907998;29;20170;-88
2023/05/19 04:53:58;;;;;;;67.55;7.50;;;9.80;99.90;;;;;;4907304;29;20184;-87
2023/05/19 04:56:23;;;;;;;69.70;8.67;;;9.90;99.90;;;;;;4907960;29;20194;-88
2023/05/19 04:58:49;;;;;;;68.60;8.00;;;10.00;99.90;;;;;;4908018;29;20660;-87
2023/05/19 05:01:15;;;;;;;70.77;7.50;;;10.00;99.90;;;;;;4908194;29;20252;-88
2023/05/19 05:03:42;;;;;;;77.00;8.10;;;10.20;99.90;;;;;;4908722;29;20459;-87
2023/05/19 05:06:07;;;;;;;75.80;8.32;;;10.20;99.90;;;;;;4908552;29;20238;-87
2023/05/19 05:08:33;;;;;;;68.60;7.97;;;10.30;99.90;;;;;;4908472;29;20177;-87
2023/05/19 05:11:00;;;;;;;69.70;8.03;;;10.30;99.90;;;;;;4908689;29;20410;-87
2023/05/19 05:13:26;;;;;;;70.60;8.30;;;10.20;99.90;;;;;;4909360;29;20775;-88
2023/05/19 05:15:52;;;;;;;74.30;10.30;;;10.30;99.90;;;;;;4907870;29;20571;-87
2023/05/19 05:18:21;;;;;;;73.32;8.27;;;10.40;99.90;;;;;;4910034;29;20245;-88
2023/05/19 05:20:47;;;;;;;70.10;8.75;;;10.40;99.90;;;;;;4908045;29;20208;-87
2023/05/19 05:23:14;;;;;;;69.15;8.40;;;10.30;99.90;;;;;;4910143;29;20174;-88
2023/05/19 05:25:40;;;;;;;74.93;9.70;;;10.30;99.90;;;;;;4910218;29;20193;-87
2023/05/19 05:28:06;;;;;;;73.82;9.57;;;10.30;99.90;;;;;;4909783;29;20161;-88
2023/05/19 05:30:35;;;;;;;75.27;9.77;;;10.40;99.90;;;;;;4909996;29;20538;-87
2023/05/19 05:33:02;;;;;;;72.53;9.05;;;10.50;99.90;;;;;;4910820;29;20200;-87
2023/05/19 05:35:27;;;;;;;72.10;7.80;;;10.50;99.90;;;;;;4911436;29;20202;-87
2023/05/19 05:37:55;;;;;;;76.97;8.55;;;10.70;99.90;;;;;;4910077;29;20177;-87
2023/05/19 05:40:20;;;;;;;70.25;7.70;;;10.70;99.90;;;;;;4910151;29;20198;-88
2023/05/19 05:42:46;;;;;;;71.50;7.80;;;10.90;99.90;;;;;;4911041;29;20181;-88
2023/05/19 05:45:12;;;;;;;73.90;9.37;;;10.90;99.90;;;;;;4911385;29;20177;-87
2023/05/19 05:47:40;;;;;;;70.50;8.10;;;10.90;99.90;;;;;;4910234;29;20221;-87
2023/05/19 05:50:09;;;;;;;71.72;8.27;;;11.00;99.90;;;;;;4910256;29;20246;-87
2023/05/19 05:52:36;;;;;;;78.18;8.13;;;11.00;99.90;;;;;;4910504;29;20170;-87
2023/05/19 05:55:03;;;;;;;70.30;7.90;;;11.00;99.90;;;;;;4909867;29;20225;-88
2023/05/19 05:57:29;;;;;;;72.25;8.23;;;11.10;99.90;;;;;;4909394;29;20197;-87
2023/05/19 05:59:55;;;;;;;70.95;9.10;;;11.20;99.90;;;;;;4910701;29;20198;-87
2023/05/19 06:02:21;;;;;;;74.72;8.23;;;11.20;99.90;;;;;;4911583;29;20166;-87
2023/05/19 06:04:47;;;;;;;76.17;8.50;;;11.30;99.90;;;;;;4911303;29;20598;-88
2023/05/19 06:07:16;;;;;;;70.57;7.80;;;11.40;99.90;;;;;;4910385;29;20484;-87
2023/05/19 06:09:42;;;;;;;73.00;7.07;;;11.50;99.90;;;;;;4912266;29;20481;-87
2023/05/19 06:12:08;;;;;;;72.13;7.47;;;11.60;99.90;;;;;;4912456;29;20181;-88
2023/05/19 06:14:33;;;;;;;70.90;7.13;;;11.60;97.10;;;;;;4911719;29;20174;-88
2023/05/19 06:16:59;;;;;;;67.53;6.93;;;11.70;94.30;;;;;;4909262;29;20440;-86
2023/05/19 06:19:25;;;;;;;70.50;6.00;;;11.70;78.70;;;;;;4906584;29;20646;-87
2023/05/19 06:21:51;;;;;;;71.80;5.80;;;11.70;40.70;;;;;;4905379;29;20419;-87
2023/05/19 06:24:17;;;;;;;68.30;5.73;;;11.80;40.80;;;;;;4906112;29;20638;-87
2023/05/19 06:26:42;;;;;;;69.17;5.50;;;11.80;48.30;;;;;;4907519;29;20246;-87
2023/05/19 06:29:08;;;;;;;67.23;5.47;;;11.90;44.90;;;;;;4906559;29;20225;-87
2023/05/19 06:31:34;;;;;;;72.23;6.70;;;12.10;37.60;;;;;;4906993;29;20166;-87
2023/05/19 06:34:00;;;;;;;71.47;5.77;;;12.10;31.40;;;;;;4906060;29;20182;-86
2023/05/19 06:36:25;;;;;;;79.13;6.37;;;12.10;33.60;;;;;;4906372;29;20205;-87
2023/05/19 06:38:51;;;;;;;66.90;5.23;;;12.10;25.20;;;;;;4905262;29;20414;-87
2023/05/19 06:41:17;;;;;;;70.47;5.30;;;12.30;18.90;;;;;;4905968;29;20272;-87
2023/05/19 06:43:42;;;;;;;67.23;4.37;;;12.30;6.20;;;;;;4906076;29;20185;-87
2023/05/19 06:46:09;;;;;;;68.63;4.67;;;12.40;19.40;;;;;;4906320;29;20245;-87
2023/05/19 06:48:35;;;;;;;67.80;5.07;;;12.40;18.60;;;;;;4904599;29;20238;-87
2023/05/19 06:51:00;;;;;;;68.33;4.40;;;12.50;15.00;;;;;;4904815;29;20442;-87
2023/05/19 06:53:26;;;;;;;66.37;5.60;;;12.60;14.10;;;;;;4905737;29;20519;-87
2023/05/19 06:55:52;;;;;;;67.03;7.17;;;12.60;10.70;;;;;;4905665;29;20200;-86
2023/05/19 06:58:18;;;;;;;69.17;6.00;;;12.70;1.00;;;;;;4906301;29;20181;-87
2023/05/19 07:00:43;;;;;;;68.37;5.30;;;12.70;1.00;;;;;;4904535;29;20573;-87
2023/05/19 07:03:09;;;;;;;68.27;5.03;;;12.70;10.60;;;;;;4903875;29;20550;-87
2023/05/19 07:05:35;;;;;;;71.20;6.23;;;12.80;1.20;;;;;;4904735;29;20174;-87
2023/05/19 07:08:01;;;;;;;66.77;5.80;;;12.90;1.00;;;;;;4905653;29;20433;-87
2023/05/19 07:10:27;;;;;;;66.40;5.40;;;13.00;1.00;;;;;;4903756;29;20269;-87
2023/05/19 07:12:53;;;;;;;72.70;7.03;;;13.00;1.00;;;;;;4903542;29;20426;-87
2023/05/19 07:15:44;;;;;;;68.93;5.97;;;13.00;1.00;;;;;;4897608;29;20422;-87
2023/05/19 07:18:24;;;;;;;67.77;5.93;;;13.10;1.00;;;;;;4897502;29;20464;-87
2023/05/19 07:21:21;;;;;;;75.40;6.43;;;13.10;1.00;;;;;;4897194;29;20445;-87
2023/05/19 07:23:47;;;;;;;66.27;5.80;;;13.20;1.00;;;;;;4896566;29;20418;-88
2023/05/19 07:26:33;;;;;;;69.27;6.60;;;13.20;1.00;;;;;;4897226;29;20501;-87
2023/05/19 07:29:10;;;;;;;71.10;6.00;;;13.30;1.00;;;;;;4898530;29;20386;-87
2023/05/19 07:31:39;;;;;;;69.40;5.60;;;13.30;1.00;;;;;;4896948;29;20497;-87
2023/05/19 07:34:07;;;;;;;68.10;5.03;;;13.40;1.00;;;;;;4898647;29;20406;-88
2023/05/19 07:36:34;;;;;;;65.70;5.60;;;13.50;1.00;;;;;;4897125;29;20525;-87
2023/05/19 07:39:09;;;;;;;69.00;6.07;;;13.50;1.00;;;;;;4898509;29;20421;-88
2023/05/19 07:41:41;;;;;;;68.03;4.87;;;13.60;1.00;;;;;;4898067;29;20488;-87
2023/05/19 07:44:10;;;;;;;67.70;5.47;;;13.60;1.00;;;;;;4900524;29;20449;-87
2023/05/19 07:46:38;;;;;;;70.60;5.30;;;13.60;1.00;;;;;;4902304;29;20418;-87
2023/05/19 07:49:07;;;;;;;67.37;5.20;;;13.70;1.00;;;;;;4902074;29;20766;-87
2023/05/19 07:51:33;;;;;;;67.90;4.73;;;13.70;1.00;;;;;;4901124;29;20430;-87
2023/05/19 07:54:02;;;;;;;69.80;5.27;;;13.80;1.00;;;;;;4899798;29;20424;-87
2023/05/19 07:56:30;;;;;;;69.13;4.77;;;13.80;1.00;;;;;;4900040;29;20472;-87
2023/05/19 07:59:21;;;;;;;70.23;6.13;;;13.90;1.00;;;;;;4900312;29;20485;-87
2023/05/19 08:01:47;;;;;;;73.50;5.80;;;14.00;1.00;;;;;;4900015;29;20514;-88
2023/05/19 08:04:18;;;;;;;67.97;6.30;;;14.00;1.00;;;;;;4900492;29;20514;-87
2023/05/19 08:06:51;;;;;;;67.40;5.87;;;14.10;1.00;;;;;;4901537;29;20494;-87
2023/05/19 08:09:17;;;;;;;71.60;5.50;;;14.00;1.00;;;;;;4901480;29;20378;-87
2023/05/19 08:11:55;;;;;;;67.10;6.03;;;14.00;1.00;;;;;;4899920;29;20782;-88
2023/05/19 08:14:21;;;;;;;68.13;5.33;;;14.10;1.00;;;;;;4900546;29;20783;-87
2023/05/19 08:16:53;;;;;;;70.00;5.77;;;14.10;1.00;;;;;;4900652;29;20442;-87
2023/05/19 08:19:25;;;;;;;69.97;5.60;;;14.20;1.00;;;;;;4899747;29;20426;-87
2023/05/19 08:22:03;;;;;;;67.57;5.50;;;14.20;1.00;;;;;;4900382;29;20517;-87
2023/05/19 08:24:29;;;;;;;66.10;5.03;;;14.30;1.00;;;;;;4901020;29;20488;-87
2023/05/19 08:27:01;;;;;;;70.57;6.80;;;14.30;1.00;;;;;;4900675;29;20434;-87
2023/05/19 08:29:32;;;;;;;73.70;5.00;;;14.40;1.00;;;;;;4900967;29;20522;-87
2023/05/19 08:31:59;;;;;;;68.00;5.17;;;14.40;1.00;;;;;;4899676;29;20454;-87
2023/05/19 08:34:26;;;;;;;73.70;5.77;;;14.50;1.00;;;;;;4900906;29;20429;-87
2023/05/19 08:37:01;;;;;;;66.90;5.63;;;14.60;1.00;;;;;;4900301;29;20446;-87
2023/05/19 08:39:32;;;;;;;74.60;5.43;;;14.60;1.00;;;;;;4899193;29;20407;-87
2023/05/19 08:41:59;;;;;;;67.90;4.70;;;14.70;1.00;;;;;;4899232;29;20466;-87
2023/05/19 08:44:40;;;;;;;70.00;4.50;;;14.90;1.00;;;;;;4900735;29;20486;-87
2023/05/19 08:47:15;;;;;;;66.57;4.20;;;14.90;1.00;;;;;;4899987;29;20445;-87
2023/05/19 08:50:09;;;;;;;69.67;4.30;;;14.90;1.00;;;;;;4900770;29;20401;-87
2023/05/19 08:53:12;;;;;;;75.40;4.70;;;14.90;1.00;;;;;;4902827;29;20411;-87
2023/05/19 08:55:57;;;;;;;70.20;5.87;;;15.00;1.00;;;;;;4901496;29;20419;-86
2023/05/19 08:58:25;;;;;;;78.10;5.57;;;15.10;1.00;;;;;;4902982;29;20423;-86
2023/05/19 09:00:52;;;;;;;68.00;4.30;;;15.30;1.00;;;;;;4904392;29;20814;-87
2023/05/19 09:03:22;;;;;;;68.27;3.83;;;15.30;1.00;;;;;;4905209;29;20411;-87
2023/05/19 09:05:48;;;;;;;68.10;4.57;;;15.40;1.00;;;;;;4905245;29;20526;-87
2023/05/19 09:08:17;;;;;;;67.90;5.20;;;15.50;1.00;;;;;;4906965;29;20437;-87
2023/05/19 09:10:43;;;;;;;68.90;4.43;;;15.40;1.00;;;;;;4904206;29;20178;-88
2023/05/19 09:13:08;;;;;;;68.20;4.93;;;15.40;1.00;;;;;;4903508;29;21068;-86
2023/05/19 09:15:37;;;;;;;68.27;4.80;;;15.50;1.00;;;;;;4903998;29;20414;-87
2023/05/19 09:18:11;;;;;;;71.30;5.27;;;15.60;1.00;;;;;;4905224;29;20171;-87
2023/05/19 09:20:42;;;;;;;67.03;5.07;;;15.80;1.00;;;;;;4905067;29;20454;-86
2023/05/19 09:23:13;;;;;;;68.67;4.63;;;15.70;1.00;;;;;;4902711;29;20388;-88
2023/05/19 09:25:52;;;;;;;67.57;4.77;;;15.80;1.00;;;;;;4967954;23;20495;-87
2023/05/19 09:28:30;;;;;;;71.93;4.97;;;16.00;1.00;;;;;;4902861;29;20403;-86
2023/05/19 09:31:04;;;;;;;69.63;4.90;;;16.10;1.00;;;;;;4902261;29;20419;-86
2023/05/19 09:33:33;;;;;;;73.70;5.60;;;16.20;1.00;;;;;;4901642;29;20403;-88
2023/05/19 09:36:00;;;;;;;68.37;4.60;;;16.50;1.00;;;;;;4902550;29;20457;-87
2023/05/19 09:38:28;;;;;;;69.73;6.07;;;16.70;1.00;;;;;;4903447;29;20928;-86
2023/05/19 09:41:01;;;;;;;75.03;5.80;;;16.80;1.00;;;;;;4902934;29;20495;-87
2023/05/19 09:43:32;;;;;;;70.13;6.20;;;16.80;1.00;;;;;;4902152;29;20423;-86
2023/05/19 09:46:10;;;;;;;71.60;7.30;;;17.00;1.00;;;;;;4900656;29;20533;-87
2023/05/19 09:48:38;;;;;;;71.60;7.13;;;17.20;1.00;;;;;;4903268;29;20395;-87
2023/05/19 09:51:13;;;;;;;73.90;8.10;;;17.30;1.00;;;;;;4901070;29;20411;-86
2023/05/19 09:53:48;;;;;;;68.00;7.43;;;17.50;1.00;;;;;;4899511;29;20410;-86
2023/05/19 09:56:22;;;;;;;74.40;7.60;;;17.70;1.00;;;;;;4901957;29;20426;-86
2023/05/19 09:58:53;;;;;;;80.07;8.83;;;17.80;1.00;;;;;;4901837;29;20427;-89
2023/05/19 10:01:19;;;;;;;72.80;9.80;;;18.00;1.00;;;;;;4899776;29;20553;-86
2023/05/19 10:03:49;;;;;;;74.60;9.67;;;18.10;1.00;;;;;;4899025;29;20911;-86
2023/05/19 10:06:16;;;;;;;68.40;8.20;;;18.30;1.00;;;;;;4898176;29;20533;-86
2023/05/19 10:08:43;;;;;;;71.00;7.77;;;18.60;1.00;;;;;;4900257;29;20499;-86
2023/05/19 10:11:10;;;;;;;72.40;4.83;;;19.00;1.00;;;;;;4898547;29;20422;-86
2023/05/19 10:13:37;;;;;;;70.77;4.20;;;19.40;1.00;;;;;;4901689;29;20941;-87
2023/05/19 10:16:04;;;;;;;68.67;3.43;;;19.50;1.00;;;;;;4899923;29;20442;-87
2023/05/19 10:18:33;;;;;;;76.60;3.77;;;19.60;1.00;;;;;;4901865;29;20410;-86
2023/05/19 10:21:00;;;;;;;71.60;3.77;;;19.90;1.00;;;;;;4903171;29;20975;-87
2023/05/19 10:23:26;;;;;;;68.90;3.80;;;20.20;1.00;;;;;;4901335;29;20843;-87
2023/05/19 10:25:56;;;;;;;68.27;3.20;;;20.30;1.00;;;;;;4902355;29;20460;-86
2023/05/19 10:28:26;;;;;;;71.73;3.83;;;20.20;1.00;;;;;;4901029;29;20471;-87
2023/05/19 10:31:01;;;;;;;69.00;4.77;;;20.40;1.00;;;;;;4901771;29;20391;-87
2023/05/19 10:34:13;;;;;;;69.50;4.03;;;20.20;1.00;;;;;;4899233;29;20425;-87
2023/05/19 10:36:44;;;;;;;70.00;5.30;;;20.00;1.00;;;;;;4898515;29;20446;-87
2023/05/19 10:40:08;;;;;;;67.30;3.40;;;20.50;1.00;;;;;;4905657;29;20445;-85
2023/05/19 10:43:01;;;;;;;70.67;4.40;;;20.70;1.00;;;;;;4893682;29;20998;-84
2023/05/19 10:46:20;;;;;;;67.90;4.30;;;20.60;1.00;;;;;;4884473;29;20473;-86
2023/05/19 10:48:54;;;;;;;70.07;4.20;;;20.30;1.00;;;;;;4903311;29;20407;-84
2023/05/19 10:54:50;;;;;;;70.83;5.10;;;20.50;1.00;;;;;;4900202;29;20438;-84
2023/05/19 11:04:46;;;;;;;71.97;6.00;;;21.40;1.00;;;;;;4900082;29;20407;-88
2023/05/19 11:07:24;;;;;;;71.40;6.60;;;21.40;1.00;;;;;;4900847;29;20478;-84
2023/05/19 11:10:07;;;;;;;74.70;6.00;;;20.90;1.00;;;;;;4904517;29;20390;-86
2023/05/19 11:12:43;;;;;;;70.20;7.30;;;20.80;1.00;;;;;;4902244;29;20420;-86
2023/05/19 11:15:42;;;;;;;71.17;6.30;;;20.80;1.00;;;;;;4903158;29;20461;-86
2023/05/19 11:21:19;;;;;;;75.45;5.72;;;20.20;1.00;;;;;;4896909;29;20997;-86
2023/05/19 11:23:45;;;;;;;68.23;4.90;;;19.80;1.00;;;;;;4904830;29;20170;-86
2023/05/19 11:26:12;;;;;;;69.77;5.80;;;19.60;1.00;;;;;;4906985;29;20453;-87
2023/05/19 11:29:03;;;;;;;73.90;5.53;;;19.70;1.00;;;;;;4906112;29;20419;-87
2023/05/19 11:31:30;;;;;;;72.50;6.23;;;19.90;1.00;;;;;;4905104;29;20408;-85
2023/05/19 11:33:57;;;;;;;71.87;5.50;;;20.30;1.00;;;;;;4906845;29;20420;-86
2023/05/19 11:36:23;;;;;;;69.97;6.10;;;20.40;1.00;;;;;;4905512;29;20446;-86
2023/05/19 11:38:54;;;;;;;69.53;6.47;;;20.50;1.00;;;;;;4906049;29;20465;-84
2023/05/19 11:41:22;;;;;;;74.97;5.67;;;20.80;1.00;;;;;;4906802;29;20516;-85
2023/05/19 11:43:48;;;;;;;74.50;6.80;;;20.80;1.00;;;;;;4907097;29;20445;-86
2023/05/19 11:46:23;;;;;;;70.20;4.70;;;20.80;1.00;;;;;;4890259;29;20450;-86
2023/05/19 11:48:52;;;;;;;70.90;6.70;;;20.60;1.00;;;;;;4907365;29;20203;-86
2023/05/19 11:51:22;;;;;;;70.53;6.70;;;20.80;1.00;;;;;;4908176;29;20428;-86
2023/05/19 11:53:49;;;;;;;71.90;8.00;;;20.80;1.00;;;;;;4905368;29;20422;-84
2023/05/19 11:56:21;;;;;;;73.60;8.00;;;20.70;1.00;;;;;;4906343;29;20460;-85
2023/05/19 11:58:46;;;;;;;72.70;8.30;;;20.50;1.00;;;;;;4904596;29;20429;-84
2023/05/19 12:01:18;;;;;;;72.47;8.50;;;20.60;1.00;;;;;;4905467;29;20532;-85
2023/05/19 12:03:48;;;;;;;70.87;7.80;;;20.90;1.00;;;;;;4906389;29;20162;-85
2023/05/19 12:06:16;;;;;;;70.17;8.43;;;20.90;1.00;;;;;;4905447;29;20446;-85
2023/05/19 12:08:53;;;;;;;72.90;8.30;;;20.80;1.00;;;;;;4905780;29;20411;-87
2023/05/19 12:11:24;;;;;;;71.50;8.77;;;20.70;1.00;;;;;;4906005;29;20394;-86
2023/05/19 12:13:58;;;;;;;73.67;8.67;;;20.50;1.00;;;;;;4905148;29;20441;-87
2023/05/19 12:16:48;;;;;;;70.87;8.77;;;20.50;1.00;;;;;;4904236;29;20964;-86
2023/05/19 12:19:19;;;;;;;70.00;8.17;;;20.50;1.00;;;;;;4905958;29;20413;-86
2023/05/19 12:21:50;;;;;;;72.77;9.60;;;21.10;1.00;;;;;;4906090;29;20517;-86
2023/05/19 12:24:42;;;;;;;;;;;;;;;;;;;;;
2023/05/19 12:27:37;;;;;;;72.30;8.10;;;22.30;1.00;;;;;;4907031;29;20533;-87
2023/05/19 12:30:15;;;;;;;71.20;5.50;;;22.60;1.00;;;;;;4894116;29;20450;-86
2023/05/19 12:32:50;;;;;;;73.67;5.10;;;22.40;1.00;;;;;;4906064;29;20429;-86
2023/05/19 12:35:26;;;;;;;70.97;5.03;;;22.20;1.00;;;;;;4906343;29;20500;-85
2023/05/19 12:38:14;;;;;;;68.77;4.60;;;22.20;1.00;;;;;;4906227;29;20406;-85
2023/05/19 12:40:44;;;;;;;70.20;3.97;;;22.20;1.00;;;;;;4904499;29;20442;-86
2023/05/19 12:43:33;;;;;;;74.20;4.40;;;22.00;1.00;;;;;;4904380;29;20462;-87
2023/05/19 12:49:54;;;;;;;73.60;4.60;;;21.80;1.00;;;;;;4853986;29;20445;-87
2023/05/19 12:52:46;;;;;;;69.87;3.93;;;21.70;1.00;;;;;;4867623;29;20426;-86
2023/05/19 12:55:19;;;;;;;69.17;3.27;;;22.00;1.00;;;;;;4906532;29;20807;-86
2023/05/19 12:57:56;;;;;;;68.40;3.07;;;22.10;1.00;;;;;;4905343;29;20517;-86
2023/05/19 13:00:31;;;;;;;70.00;4.57;;;22.40;1.00;;;;;;4906864;29;20548;-86
2023/05/19 13:03:14;;;;;;;70.00;2.90;;;22.70;1.00;;;;;;4904827;29;20411;-86
2023/05/19 13:05:45;;;;;;;69.33;4.00;;;22.60;1.00;;;;;;4904847;29;20418;-86
2023/05/19 13:08:17;;;;;;;76.40;6.93;;;22.20;1.00;;;;;;4902690;29;20463;-87
2023/05/19 13:10:54;;;;;;;77.70;3.97;;;22.40;1.00;;;;;;4900411;29;20415;-87
2023/05/19 13:13:38;;;;;;;69.50;3.50;;;22.60;1.00;;;;;;4903567;29;20387;-87
2023/05/19 13:16:30;;;;;;;70.57;3.63;;;22.40;1.00;;;;;;4901110;29;20921;-87
2023/05/19 13:19:09;;;;;;;68.50;3.27;;;22.50;1.00;;;;;;4829363;29;20794;-87
2023/05/19 13:21:54;;;;;;;70.50;3.23;;;22.50;1.00;;;;;;4826912;29;20833;-86
2023/05/19 13:25:07;;;;;;;70.97;3.23;;;22.60;1.00;;;;;;4842087;29;20417;-86
2023/05/19 13:31:37;;;;;;;70.67;4.80;;;22.50;1.00;;;;;;4777695;30;21007;-87
2023/05/19 13:34:13;;;;;;;74.50;4.13;;;22.50;1.00;;;;;;4787091;30;20509;-87
2023/05/19 13:36:46;;;;;;;69.10;3.33;;;22.80;1.00;;;;;;4772677;30;20549;-87
2023/05/19 13:39:15;;;;;;;69.27;3.80;;;22.80;1.00;;;;;;4788163;30;20975;-87
2023/05/19 13:42:23;;;;;;;71.70;4.27;;;22.50;1.00;;;;;;4787646;29;20908;-87
2023/05/19 13:45:05;;;;;;;73.37;3.43;;;22.60;1.00;;;;;;4826010;29;20463;-87
2023/05/19 13:55:33;;;;;;;;;;;;;;;;;;;;;
2023/05/19 13:59:00;;;;;;;;;;;;;;;;;;;;;
2023/05/19 14:06:13;;;;;;;70.10;4.07;;;23.60;1.00;;;;;;4802084;29;20502;-88
2023/05/19 14:09:02;;;;;;;70.87;3.47;;;23.10;1.00;;;;;;4807642;29;20604;-91
2023/05/19 14:11:52;;;;;;;69.30;4.30;;;22.90;1.00;;;;;;4807910;29;20461;-88
2023/05/19 14:14:47;;;;;;;70.70;5.30;;;22.90;1.00;;;;;;4805479;29;20415;-88